Time;durP1;ratioP1;P1;durP2;ratioP2;P2;SDS_P1;SDS_P2;PMS_P1;PMS_P2;Temp;Humidity;BMP_temperature;BMP_pressure;BME280_temperature;BME280_humidity;BME280_pressure;Samples;Min_cycle;Max_cycle;Signal;HPM_P1;HPM_P2
2022/01/20 00:00:33;;;;;;;;;1.00;1.00;;;;;15.80;55.39;102522.41;4953134;28;9216;-73
2022/01/20 00:03:02;;;;;;;;;1.00;1.00;;;;;15.75;55.42;102506.50;4953180;28;9472;-72
2022/01/20 00:05:56;;;;;;;;;0.00;0.00;;;;;15.77;55.21;102515.34;4953409;28;9275;-73
2022/01/20 00:08:33;;;;;;;;;0.00;0.00;;;;;15.79;55.25;102528.53;4953454;28;9384;-73
2022/01/20 00:27:25;;;;;;;;;0.00;0.00;;;;;15.73;54.84;102547.69;4952879;28;9091;-73
2022/01/20 00:32:30;;;;;;;;;0.67;0.67;;;;;15.72;54.96;102538.00;4953722;28;9397;-73
2022/01/20 00:37:22;;;;;;;;;0.33;0.33;;;;;15.75;54.84;102547.72;4952292;28;9189;-72
2022/01/20 00:39:48;;;;;;;;;0.00;0.00;;;;;15.72;54.54;102545.00;4953146;28;8797;-72
2022/01/20 00:42:15;;;;;;;;;0.00;0.00;;;;;15.72;54.69;102547.66;4952639;28;9341;-72
2022/01/20 00:44:42;;;;;;;;;1.00;1.00;;;;;15.70;54.55;102544.09;4953201;28;8896;-72
2022/01/20 00:47:07;;;;;;;;;0.67;0.00;;;;;15.71;54.72;102552.03;4952891;28;9338;-72
2022/01/20 00:49:33;;;;;;;;;1.00;1.00;;;;;15.69;54.40;102544.94;4953221;28;9186;-72
2022/01/20 00:51:58;;;;;;;;;0.00;0.00;;;;;15.71;54.53;102552.03;4952697;28;8833;-73
2022/01/20 00:54:23;;;;;;;;;0.00;0.00;;;;;15.71;54.45;102545.88;4952898;28;8814;-72
2022/01/20 00:56:48;;;;;;;;;0.33;0.00;;;;;15.73;54.39;102558.22;4952935;28;8856;-73
2022/01/20 00:59:14;;;;;;;;;2.33;0.67;;;;;15.70;54.49;102552.00;4953028;28;8860;-73
2022/01/20 01:01:40;;;;;;;;;0.00;0.00;;;;;15.71;54.72;102556.41;4952574;28;9542;-73
2022/01/20 01:04:05;;;;;;;;;0.00;0.00;;;;;15.70;54.49;102550.25;4952960;28;8802;-73
2022/01/20 01:09:11;;;;;;;;;0.33;0.33;;;;;15.67;54.46;102557.19;4952595;28;8806;-72
2022/01/20 01:11:37;;;;;;;;;0.00;0.00;;;;;15.67;54.51;102554.56;4953072;28;9393;-73
2022/01/20 01:14:04;;;;;;;;;0.00;0.00;;;;;15.70;54.64;102546.72;4952641;28;8778;-73
2022/01/20 01:22:13;;;;;;;;;0.00;0.00;;;;;15.69;54.72;102559.00;4952719;29;10066;-72
2022/01/20 01:24:42;;;;;;;;;1.00;0.00;;;;;15.67;54.66;102560.69;4953084;29;9992;-73
2022/01/20 01:27:08;;;;;;;;;1.00;1.00;;;;;15.67;54.53;102555.41;4952548;29;9146;-73
2022/01/20 01:31:59;;;;;;;;;0.00;0.00;;;;;15.66;54.41;102574.72;4952716;29;9371;-73
2022/01/20 01:34:28;;;;;;;;;0.00;0.00;;;;;15.67;54.52;102562.44;4953126;28;8786;-73
2022/01/20 01:39:25;;;;;;;;;0.00;0.00;;;;;15.65;54.51;102549.22;4952924;29;9191;-73
2022/01/20 01:41:50;;;;;;;;;0.00;0.00;;;;;15.66;54.32;102558.91;4952597;28;9321;-73
2022/01/20 01:44:25;;;;;;;;;0.67;0.00;;;;;15.66;54.42;102566.81;4952494;28;8896;-73
2022/01/20 01:46:52;;;;;;;;;1.33;1.33;;;;;15.68;54.44;102574.75;4952782;28;8804;-72
2022/01/20 01:49:18;;;;;;;;;0.00;0.00;;;;;15.67;54.25;102576.47;4956720;28;9207;-73
2022/01/20 01:51:44;;;;;;;;;0.00;0.00;;;;;15.67;54.57;102576.47;4955671;28;10156;-72
2022/01/20 01:54:11;;;;;;;;;0.00;0.00;;;;;15.66;54.25;102568.56;4956278;28;9264;-72
2022/01/20 01:56:36;;;;;;;;;0.33;0.00;;;;;15.66;54.42;102574.72;4956445;28;8856;-72
2022/01/20 01:59:02;;;;;;;;;0.00;0.00;;;;;15.64;54.19;102583.41;4955231;28;9201;-72
2022/01/20 02:01:31;;;;;;;;;0.00;0.00;;;;;15.63;54.38;102576.38;4956088;28;8804;-72
2022/01/20 02:04:01;;;;;;;;;0.33;0.33;;;;;15.63;54.45;102576.38;4955830;28;8842;-72
2022/01/20 02:19:54;;;;;;;;;1.00;1.00;;;;;15.60;53.96;102558.72;4955281;28;9165;-73
2022/01/20 02:22:20;;;;;;;;;0.67;0.67;;;;;15.63;54.06;102565.84;4955712;28;9337;-73
2022/01/20 02:24:45;;;;;;;;;0.00;0.00;;;;;15.62;53.90;102554.41;4955673;28;9484;-73
2022/01/20 02:27:10;;;;;;;;;0.00;0.00;;;;;15.62;54.05;102571.94;4955184;28;8794;-73
2022/01/20 02:29:35;;;;;;;;;0.33;0.00;;;;;15.60;53.97;102569.25;4955278;28;9539;-73
2022/01/20 02:32:01;;;;;;;;;0.00;0.00;;;;;15.60;53.94;102561.34;4955569;28;8817;-72
2022/01/20 02:34:29;;;;;;;;;1.00;0.00;;;;;15.60;54.07;102563.09;4955058;28;8811;-73
2022/01/20 02:36:57;;;;;;;;;0.00;0.00;;;;;15.64;53.75;102551.81;4955166;28;9571;-73
2022/01/20 02:47:20;;;;;;;;;0.33;0.33;;;;;15.62;53.83;102570.22;4954698;28;9176;-73
2022/01/20 02:49:46;;;;;;;;;2.00;2.00;;;;;15.62;53.98;102564.94;4954866;28;8969;-73
2022/01/20 02:52:11;;;;;;;;;0.00;0.00;;;;;15.61;53.68;102552.63;4955288;28;9286;-73
2022/01/20 02:54:36;;;;;;;;;0.00;0.00;;;;;15.61;53.96;102552.63;4954986;28;8786;-73
2022/01/20 02:57:04;;;;;;;;;1.00;1.00;;;;;15.61;53.68;102555.25;4954770;28;8793;-73
2022/01/20 02:59:29;;;;;;;;;1.00;0.00;;;;;15.64;53.68;102562.34;4954307;28;8877;-74
2022/01/20 03:01:54;;;;;;;;;1.00;1.00;;;;;15.62;53.70;102559.69;4954346;28;9134;-73
2022/01/20 03:04:24;;;;;;;;;0.00;0.00;;;;;15.63;53.77;102571.09;4954839;28;8797;-73
2022/01/20 03:06:49;;;;;;;;;0.00;0.00;;;;;15.60;53.50;102560.47;4954806;28;8794;-73
2022/01/20 03:09:15;;;;;;;;;0.33;0.00;;;;;15.61;53.63;102555.25;4954098;28;9484;-73
2022/01/20 03:11:40;;;;;;;;;1.00;0.00;;;;;15.60;53.58;102573.63;4954234;28;8892;-73
2022/01/20 03:14:05;;;;;;;;;1.00;0.00;;;;;15.57;53.59;102577.06;4954838;28;8789;-73
2022/01/20 03:16:30;;;;;;;;;1.00;0.00;;;;;15.58;53.54;102580.59;4954378;28;8805;-74
2022/01/20 03:18:56;;;;;;;;;0.00;0.00;;;;;15.57;53.36;102582.34;4953941;28;8802;-74
2022/01/20 03:21:22;;;;;;;;;1.00;1.00;;;;;15.58;53.71;102583.22;4954404;28;8793;-73
2022/01/20 03:23:47;;;;;;;;;0.00;0.00;;;;;15.55;53.50;102578.78;4954092;28;8897;-73
2022/01/20 03:26:12;;;;;;;;;1.67;1.00;;;;;15.59;53.36;102585.03;4954257;28;8852;-73
2022/01/20 03:28:38;;;;;;;;;3.00;0.00;;;;;15.57;53.22;102566.53;4954163;28;8853;-73
2022/01/20 03:31:03;;;;;;;;;0.00;0.00;;;;;15.60;53.32;102577.16;4953752;28;9510;-74
2022/01/20 03:33:28;;;;;;;;;2.67;0.00;;;;;15.58;53.62;102572.69;4954137;28;8965;-73
2022/01/20 03:35:54;;;;;;;;;1.00;0.00;;;;;15.56;53.18;102577.91;4953783;28;9538;-73
2022/01/20 03:38:19;;;;;;;;;0.67;0.67;;;;;15.56;53.31;102583.19;4954300;28;8801;-73
2022/01/20 03:40:47;;;;;;;;;0.00;0.00;;;;;15.58;53.55;102592.03;4953944;28;8810;-72
2022/01/20 03:43:13;;;;;;;;;0.00;0.00;;;;;15.59;53.27;102635.94;4953554;28;8797;-73
2022/01/20 03:45:41;;;;;;;;;1.00;1.00;;;;;15.54;53.30;102626.13;4954275;28;9401;-72
2022/01/20 03:48:11;;;;;;;;;0.00;0.00;;;;;15.54;53.29;102624.38;4954297;28;8899;-73
2022/01/20 03:53:22;;;;;;;;;2.67;1.00;;;;;15.55;53.25;102617.38;4953666;28;9338;-73
2022/01/20 03:55:47;;;;;;;;;0.00;0.00;;;;;15.55;53.19;102633.16;4953561;28;9283;-74
2022/01/20 03:58:13;;;;;;;;;0.00;0.00;;;;;15.55;53.26;102648.97;4953700;28;9455;-74
2022/01/20 04:00:39;;;;;;;;;1.67;1.00;;;;;15.56;53.29;102645.50;4953977;28;8825;-73
2022/01/20 04:03:04;;;;;;;;;0.00;0.00;;;;;15.51;53.08;102626.94;4976943;23;11436;-73
2022/01/20 04:05:30;;;;;;;;;2.00;0.33;;;;;15.52;53.33;102619.94;4972733;28;8779;-73
2022/01/20 04:07:55;;;;;;;;;1.25;0.25;;;;;15.55;53.19;102631.44;4972797;28;8805;-73
2022/01/20 04:10:20;;;;;;;;;2.33;0.00;;;;;15.52;52.98;102626.09;4973211;28;8790;-73
2022/01/20 04:12:46;;;;;;;;;0.00;0.00;;;;;15.56;53.32;102630.56;4972203;28;8872;-73
2022/01/20 04:15:12;;;;;;;;;0.00;0.00;;;;;15.55;53.31;102628.81;4972917;28;8892;-72
2022/01/20 04:17:41;;;;;;;;;0.00;0.00;;;;;15.55;53.24;102639.34;4973130;28;8774;-73
2022/01/20 04:20:07;;;;;;;;;0.00;0.00;;;;;15.55;53.08;102641.06;4972381;28;9524;-73
2022/01/20 04:22:33;;;;;;;;;0.00;0.00;;;;;15.55;53.36;102648.97;4973008;28;9274;-73
2022/01/20 04:24:58;;;;;;;;;0.00;0.00;;;;;15.57;53.25;102663.94;4972747;28;9180;-73
2022/01/20 04:27:23;;;;;;;;;1.00;0.00;;;;;15.56;53.18;102659.53;4972562;28;8774;-73
2022/01/20 04:29:49;;;;;;;;;0.00;0.00;;;;;15.57;53.17;102661.31;4972177;28;8791;-72
2022/01/20 04:32:14;;;;;;;;;0.00;0.00;;;;;15.59;53.27;102661.38;4972252;28;8840;-73
2022/01/20 04:34:40;;;;;;;;;0.00;0.00;;;;;15.56;53.27;102651.63;4972605;28;8794;-72
2022/01/20 04:37:06;;;;;;;;;0.00;0.00;;;;;15.52;53.31;102652.41;4972503;28;8779;-74
2022/01/20 04:39:34;;;;;;;;;0.00;0.00;;;;;15.54;53.33;102652.44;4972278;28;8770;-73
2022/01/20 04:42:00;;;;;;;;;1.00;1.00;;;;;15.58;53.35;102662.22;4971929;28;9208;-73
2022/01/20 04:44:47;;;;;;;;;0.00;0.00;;;;;15.54;53.23;102658.59;4972705;28;9172;-73
2022/01/20 04:58:08;;;;;;;;;0.00;0.00;;;;;15.48;53.15;102689.97;4972932;28;9935;-73
2022/01/20 05:00:34;;;;;;;;;0.00;0.00;;;;;15.49;53.20;102689.16;4972432;28;9314;-73
2022/01/20 05:02:59;;;;;;;;;0.00;0.00;;;;;15.50;53.05;102687.41;4972068;28;8802;-73
2022/01/20 05:05:25;;;;;;;;;0.00;0.00;;;;;15.49;52.99;102699.66;4972361;28;8767;-73
2022/01/20 05:07:50;;;;;;;;;0.00;0.00;;;;;15.51;53.04;102711.16;4972044;28;8770;-73
2022/01/20 05:10:15;;;;;;;;;1.00;0.00;;;;;15.51;53.36;102708.53;4972190;28;8884;-74
2022/01/20 05:15:22;;;;;;;;;0.00;0.00;;;;;15.49;53.11;102710.19;4971681;28;8750;-73
2022/01/20 05:17:47;;;;;;;;;1.00;1.00;;;;;15.51;53.20;102712.91;4972188;28;9352;-73
2022/01/20 05:20:13;;;;;;;;;0.67;0.00;;;;;15.52;53.25;102725.22;4972232;28;9184;-73
2022/01/20 05:22:38;;;;;;;;;0.67;0.67;;;;;15.48;53.12;102717.16;4973962;28;8759;-73
2022/01/20 05:25:04;;;;;;;;;0.00;0.00;;;;;15.51;53.02;102721.69;4975475;28;8837;-73
2022/01/20 05:27:30;;;;;;;;;0.00;0.00;;;;;15.52;52.94;102730.50;4982742;23;8786;-74
2022/01/20 05:29:55;;;;;;;;;1.00;0.00;;;;;15.48;52.98;102726.84;4975721;28;9460;-73
2022/01/20 05:32:22;;;;;;;;;2.00;1.00;;;;;15.50;52.71;102735.69;4975430;28;9656;-74
2022/01/20 05:34:47;;;;;;;;;0.00;0.00;;;;;15.48;52.80;102737.38;4976058;28;8782;-73
2022/01/20 05:37:13;;;;;;;;;2.00;2.00;;;;;15.51;52.98;102734.84;4975142;28;9428;-73
2022/01/20 05:39:39;;;;;;;;;1.25;1.25;;;;;15.49;52.78;102736.53;4975651;28;8770;-73
2022/01/20 05:42:04;;;;;;;;;0.00;0.00;;;;;15.52;53.05;102746.28;4975358;28;10471;-73
2022/01/20 05:44:30;;;;;;;;;0.67;0.00;;;;;15.50;52.72;102745.31;4975468;28;8809;-73
2022/01/20 05:46:55;;;;;;;;;1.00;1.00;;;;;15.54;52.89;102747.22;4975429;28;8786;-73
2022/01/20 05:49:21;;;;;;;;;0.00;0.00;;;;;15.52;52.37;102755.09;4975466;28;8799;-72
2022/01/20 05:51:47;;;;;;;;;1.00;0.33;;;;;15.53;52.37;102753.31;4975094;28;8822;-74
2022/01/20 05:54:13;;;;;;;;;1.00;1.00;;;;;15.53;52.76;102753.31;4975257;28;8790;-73
2022/01/20 05:56:38;;;;;;;;;1.00;1.00;;;;;15.55;52.64;102770.06;4975396;28;9329;-73
2022/01/20 05:59:03;;;;;;;;;0.33;0.33;;;;;15.58;52.59;102768.44;4975139;28;8782;-73
2022/01/20 06:01:29;;;;;;;;;2.00;0.00;;;;;15.58;52.42;102764.91;4975555;28;8844;-73
2022/01/20 06:03:55;;;;;;;;;0.33;0.33;;;;;15.65;52.23;102772.13;4975278;28;8762;-73
2022/01/20 06:06:21;;;;;;;;;1.00;0.00;;;;;15.68;52.11;102773.13;4975415;28;9338;-73
2022/01/20 06:08:47;;;;;;;;;1.33;0.00;;;;;15.66;51.93;102760.78;4975376;28;8825;-73
2022/01/20 06:11:12;;;;;;;;;0.00;0.00;;;;;15.69;52.04;102767.03;4974302;28;9319;-73
2022/01/20 06:13:38;;;;;;;;;0.00;0.00;;;;;15.72;52.22;102766.22;4974970;28;8809;-73
2022/01/20 06:16:03;;;;;;;;;0.00;0.00;;;;;15.74;52.11;102756.63;4975222;28;8774;-73
2022/01/20 06:18:29;;;;;;;;;2.00;0.00;;;;;15.72;51.70;102759.22;4974705;28;9541;-73
2022/01/20 06:20:57;;;;;;;;;0.00;0.00;;;;;15.77;51.79;102770.78;4975160;28;8763;-73
2022/01/20 06:23:23;;;;;;;;;0.00;0.00;;;;;15.75;51.82;102779.47;4974887;28;8794;-73
2022/01/20 06:25:49;;;;;;;;;0.00;0.00;;;;;15.74;51.90;102775.06;4974454;28;9294;-73
2022/01/20 06:28:24;;;;;;;;;0.00;0.00;;;;;15.74;51.53;102790.88;4974298;28;9298;-73
2022/01/20 06:30:49;;;;;;;;;2.33;1.00;;;;;15.70;51.76;102805.69;4974891;28;8798;-73
2022/01/20 06:33:15;;;;;;;;;1.00;1.00;;;;;15.71;51.55;102801.31;4973341;28;9259;-73
2022/01/20 06:35:40;;;;;;;;;1.00;0.67;;;;;15.70;51.64;102792.50;4974324;28;8809;-73
2022/01/20 06:38:06;;;;;;;;;2.00;0.00;;;;;15.71;51.53;102783.75;4974487;28;8795;-73
2022/01/20 06:40:32;;;;;;;;;0.00;0.00;;;;;15.70;51.62;102797.78;4974350;28;8790;-73
2022/01/20 06:42:58;;;;;;;;;1.33;0.00;;;;;15.72;51.54;102797.81;4974412;28;8794;-74
2022/01/20 06:45:23;;;;;;;;;0.00;0.00;;;;;15.71;51.46;102802.19;4974271;28;9129;-73
2022/01/20 06:47:49;;;;;;;;;1.00;0.00;;;;;15.71;51.35;102807.44;4974293;28;8790;-73
2022/01/20 06:50:15;;;;;;;;;0.00;0.00;;;;;15.69;51.10;102806.53;4974372;28;8852;-73
2022/01/20 06:52:41;;;;;;;;;0.00;0.00;;;;;15.72;51.25;102814.50;4974352;28;9500;-73
2022/01/20 06:55:10;;;;;;;;;0.00;0.00;;;;;15.75;51.27;102816.34;4973949;28;8774;-73
2022/01/20 06:57:36;;;;;;;;;0.00;0.00;;;;;15.77;51.35;102818.19;4974678;28;9347;-73
2022/01/20 07:00:12;;;;;;;;;0.00;0.00;;;;;15.80;50.89;102836.72;4973999;28;9192;-73
2022/01/20 07:02:37;;;;;;;;;0.00;0.00;;;;;15.79;51.17;102850.72;4974087;28;9115;-74
2022/01/20 07:05:03;;;;;;;;;1.67;1.67;;;;;15.88;56.56;102868.56;4974584;28;9105;-75
2022/01/20 07:07:30;;;;;;;;;3.00;1.67;;;;;15.99;58.76;102855.75;4973862;28;8770;-74
2022/01/20 07:09:56;;;;;;;;;1.00;0.00;;;;;15.98;56.36;102859.22;4974122;28;9321;-74
2022/01/20 07:12:21;;;;;;;;;2.67;1.00;;;;;16.02;57.47;102851.47;4973891;28;9957;-74
2022/01/20 07:14:46;;;;;;;;;4.00;2.33;;;;;16.05;57.83;102851.56;4973563;28;8778;-74
2022/01/20 07:17:12;;;;;;;;;1.00;1.00;;;;;16.12;59.28;102848.25;4973613;28;8779;-74
2022/01/20 07:19:37;;;;;;;;;2.33;2.00;;;;;16.19;58.26;102841.44;4973766;28;8857;-75
2022/01/20 07:22:03;;;;;;;;;3.67;2.67;;;;;16.32;62.08;102838.31;4973453;28;8873;-75
2022/01/20 07:24:30;;;;;;;;;2.75;2.00;;;;;16.32;62.59;102847.13;4974075;28;8853;-74
2022/01/20 07:26:56;;;;;;;;;2.67;2.67;;;;;16.28;63.52;102842.63;4973851;28;8779;-76
2022/01/20 07:29:21;;;;;;;;;3.00;3.00;;;;;16.28;64.00;102845.25;4972803;28;9283;-78
2022/01/20 07:31:47;;;;;;;;;5.00;2.00;;;;;16.25;63.62;102854.81;4968503;28;9319;-77
2022/01/20 07:34:12;;;;;;;;;2.67;1.33;;;;;16.20;63.98;102869.56;4972629;28;8806;-76
2022/01/20 07:36:37;;;;;;;;;2.00;2.00;;;;;16.21;64.61;102871.38;4972718;28;8793;-77
2022/01/20 07:39:06;;;;;;;;;6.00;2.50;;;;;16.19;63.50;102870.44;4973323;28;8782;-77
2022/01/20 07:41:32;;;;;;;;;1.00;1.00;;;;;16.14;63.94;102861.50;4973375;28;8802;-77
2022/01/20 07:43:57;;;;;;;;;1.00;1.00;;;;;16.13;63.95;102880.78;4972990;28;10050;-77
2022/01/20 07:46:23;;;;;;;;;2.25;1.00;;;;;16.07;63.76;102868.31;4971973;28;11430;-80
2022/01/20 07:48:48;;;;;;;;;2.00;2.00;;;;;16.32;63.25;102865.59;4973615;28;8904;-78
2022/01/20 07:51:15;;;;;;;;;1.67;1.67;;;;;16.37;61.95;102879.81;4972293;28;8771;-79
2022/01/20 07:53:40;;;;;;;;;2.00;2.00;;;;;16.53;61.71;102885.53;4972872;28;8809;-73
2022/01/20 07:56:06;;;;;;;;;1.67;1.00;;;;;16.43;61.70;102893.16;4972100;28;9392;-71
2022/01/20 07:58:33;;;;;;;;;3.00;2.00;;;;;16.32;61.48;102898.94;4972682;28;8794;-72
2022/01/20 08:00:59;;;;;;;;;1.00;1.00;;;;;16.26;61.25;102896.13;4971366;28;8864;-72
2022/01/20 08:03:25;;;;;;;;;2.00;2.00;;;;;16.27;61.00;102895.31;4970597;28;9323;-70
2022/01/20 08:05:50;;;;;;;;;0.00;0.00;;;;;16.26;60.31;102886.50;4972217;28;9528;-70
2022/01/20 08:08:15;;;;;;;;;0.00;0.00;;;;;16.36;58.94;102893.81;4971921;28;8847;-70
2022/01/20 08:10:41;;;;;;;;;2.00;2.00;;;;;16.35;57.65;102888.50;4971186;28;8866;-70
2022/01/20 08:13:06;;;;;;;;;0.00;0.00;;;;;16.32;55.93;102891.94;4971504;28;8840;-71
2022/01/20 08:15:32;;;;;;;;;0.33;0.33;;;;;16.32;55.45;102899.84;4971731;28;8842;-70
2022/01/20 08:17:57;;;;;;;;;1.00;1.00;;;;;16.21;55.94;102906.53;4971848;28;8820;-70
2022/01/20 08:20:22;;;;;;;;;3.67;0.00;;;;;16.15;55.42;102895.81;4970739;28;8936;-70
2022/01/20 08:22:48;;;;;;;;;0.00;0.00;;;;;16.14;54.75;102887.84;4971616;28;8836;-70
2022/01/20 08:25:18;;;;;;;;;2.00;1.00;;;;;16.06;54.35;102902.50;4971338;28;8828;-71
2022/01/20 08:27:45;;;;;;;;;2.00;0.75;;;;;16.02;53.53;102901.53;4971431;28;8835;-71
2022/01/20 08:30:17;;;;;;;;;2.00;0.00;;;;;16.09;52.96;102908.78;4969844;28;9360;-70
2022/01/20 08:32:44;;;;;;;;;1.67;1.00;;;;;16.05;52.53;102900.72;4971458;28;9467;-72
2022/01/20 08:35:10;;;;;;;;;0.33;0.33;;;;;16.01;51.94;102907.63;4970965;28;9373;-72
2022/01/20 08:37:40;;;;;;;;;4.00;2.00;;;;;15.97;51.98;102912.78;4972111;28;9200;-72
2022/01/20 08:40:26;;;;;;;;;0.33;0.33;;;;;15.96;52.00;102906.59;4970235;28;9274;-72
2022/01/20 08:42:52;;;;;;;;;1.25;0.25;;;;;16.07;51.72;102922.75;4972090;28;9387;-72
2022/01/20 08:45:22;;;;;;;;;1.00;1.00;;;;;16.22;51.94;102929.41;4970749;28;9365;-73
2022/01/20 08:47:51;;;;;;;;;1.00;1.00;;;;;16.26;52.17;102925.13;4971498;28;9174;-73
2022/01/20 08:50:17;;;;;;;;;1.67;1.00;;;;;16.26;51.29;102941.84;4969926;28;9420;-72
2022/01/20 08:52:42;;;;;;;;;0.67;0.67;;;;;16.27;51.56;102935.69;4970848;28;9357;-72
2022/01/20 08:55:08;;;;;;;;;0.00;0.00;;;;;16.27;51.70;102937.47;4970616;28;8816;-73
2022/01/20 08:57:33;;;;;;;;;0.00;0.00;;;;;16.27;51.41;102940.13;4970909;28;8824;-73
2022/01/20 08:59:59;;;;;;;;;0.00;0.00;;;;;16.28;51.53;102950.69;4969393;28;8814;-74
2022/01/20 09:02:24;;;;;;;;;0.33;0.00;;;;;16.26;51.49;102955.03;4970975;28;9581;-73
2022/01/20 09:04:55;;;;;;;;;0.00;0.00;;;;;16.27;51.91;102951.50;4971556;28;8791;-73
2022/01/20 09:07:23;;;;;;;;;1.00;1.00;;;;;16.28;51.43;102949.78;4968664;28;8802;-73
2022/01/20 09:09:50;;;;;;;;;0.00;0.00;;;;;16.26;51.73;102964.66;4969004;28;9394;-76
2022/01/20 09:15:31;;;;;;;;;0.00;0.00;;;;;16.23;51.78;102978.63;4959158;28;9976;-75
2022/01/20 09:18:00;;;;;;;;;0.00;0.00;;;;;16.22;51.37;102979.50;4969215;28;9315;-76
2022/01/20 09:20:27;;;;;;;;;1.00;1.00;;;;;16.23;51.18;102977.75;4969550;28;9296;-76
2022/01/20 09:22:54;;;;;;;;;0.00;0.00;;;;;16.19;51.49;102987.31;4970980;28;9207;-75
2022/01/20 09:25:21;;;;;;;;;0.00;0.00;;;;;16.21;51.71;102982.06;4963278;28;9204;-78
2022/01/20 09:27:46;;;;;;;;;0.67;0.00;;;;;16.22;51.31;102978.59;4967121;28;9214;-80
2022/01/20 09:30:18;;;;;;;;;0.33;0.00;;;;;16.24;51.30;102990.06;4969581;28;9189;-76
2022/01/20 09:33:32;;;;;;;;;1.00;1.00;;;;;16.20;51.52;102986.44;4971335;28;8944;-74
2022/01/20 09:35:34;;;;;;;;;0.00;0.00;;;;;16.20;51.54;103003.97;4959753;28;9324;-77
2022/01/20 09:38:01;;;;;;;;;0.00;0.00;;;;;16.18;51.29;102992.50;4971144;28;9233;-78
2022/01/20 09:40:30;;;;;;;;;0.00;0.00;;;;;16.19;51.28;102991.69;4969831;28;9221;-78
2022/01/20 09:42:55;;;;;;;;;2.00;1.00;;;;;16.19;51.48;102989.03;4970107;28;9444;-78
2022/01/20 09:45:20;;;;;;;;;0.33;0.33;;;;;16.22;51.12;102994.41;4970848;28;9311;-79
2022/01/20 09:47:46;;;;;;;;;1.00;1.00;;;;;16.18;51.00;102982.88;4971323;28;8914;-79
2022/01/20 09:50:19;;;;;;;;;0.67;0.00;;;;;16.17;51.09;102995.97;4968863;28;8832;-78
2022/01/20 09:52:46;;;;;;;;;1.00;1.00;;;;;16.13;51.02;102992.34;4971151;28;8940;-80
2022/01/20 09:55:13;;;;;;;;;1.25;1.25;;;;;16.15;51.08;103005.59;4970550;28;9494;-79
2022/01/20 09:57:38;;;;;;;;;0.00;0.00;;;;;16.16;51.00;103004.75;4969919;28;9456;-77
2022/01/20 10:00:07;;;;;;;;;1.00;1.00;;;;;16.14;51.02;103012.59;4969900;28;10195;-78
2022/01/20 10:02:32;;;;;;;;;0.00;0.00;;;;;16.15;50.81;103017.03;4970575;28;8820;-78
2022/01/20 10:04:58;;;;;;;;;0.00;0.00;;;;;16.15;51.00;103017.03;4970144;28;9392;-78
2022/01/20 10:07:31;;;;;;;;;0.00;0.00;;;;;16.15;51.12;103029.31;4970687;28;8820;-79
2022/01/20 10:09:56;;;;;;;;;0.00;0.00;;;;;16.16;50.68;103031.13;4972789;28;8818;-77
2022/01/20 10:12:27;;;;;;;;;0.75;0.75;;;;;16.14;50.87;103032.78;4973182;28;9405;-81
2022/01/20 10:14:56;;;;;;;;;1.00;1.00;;;;;16.48;54.61;103034.78;4974809;28;8903;-85
2022/01/20 10:17:30;;;;;;;;;0.00;0.00;;;;;16.23;53.47;103033.09;4974154;28;9376;-83
2022/01/20 10:20:01;;;;;;;;;0.00;0.00;;;;;16.08;53.34;103040.50;4973645;28;9458;-83
2022/01/20 10:22:28;;;;;;;;;0.00;0.00;;;;;16.03;54.42;103040.34;4974317;28;9350;-83
2022/01/20 10:25:06;;;;;;;;;0.00;0.00;;;;;15.93;54.37;103046.13;4973063;28;9527;-83
2022/01/20 10:27:34;;;;;;;;;0.67;0.00;;;;;15.90;55.77;103044.28;4973112;28;10337;-84
2022/01/20 10:30:05;;;;;;;;;0.67;0.67;;;;;15.89;55.70;103041.59;4973140;28;9284;-84
2022/01/20 10:32:45;;;;;;;;;0.25;0.00;;;;;15.85;57.06;103058.13;4973073;28;9396;-82
2022/01/20 10:35:12;;;;;;;;;1.00;1.00;;;;;15.84;55.75;103053.69;4972432;28;9455;-80
2022/01/20 10:37:39;;;;;;;;;2.00;1.00;;;;;15.80;55.48;103065.88;4972401;28;9392;-82
2022/01/20 10:40:09;;;;;;;;;0.33;0.00;;;;;15.83;56.94;103070.34;4972863;28;9358;-85
2022/01/20 10:42:38;;;;;;;;;0.00;0.00;;;;;15.78;57.13;103064.03;4974771;28;9143;-84
2022/01/20 10:45:03;;;;;;;;;0.00;0.00;;;;;15.74;56.78;103064.75;4973823;28;10020;-84
2022/01/20 10:47:33;;;;;;;;;0.33;0.00;;;;;15.75;56.67;103064.78;4974389;28;9312;-84
2022/01/20 10:50:36;;;;;;;;;0.00;0.00;;;;;15.74;56.21;103078.84;4974339;28;8796;-84
2022/01/20 10:53:01;;;;;;;;;1.00;0.00;;;;;15.76;56.24;103079.78;4911928;29;9464;-84
2022/01/20 10:55:33;;;;;;;;;1.00;0.00;;;;;15.77;57.32;103081.56;4962403;28;9320;-85
2022/01/20 10:58:16;;;;;;;;;0.50;0.50;;;;;15.77;58.18;103078.94;4974510;28;8792;-85
2022/01/20 11:00:44;;;;;;;;;0.00;0.00;;;;;15.75;57.24;103084.97;4974101;28;9553;-84
2022/01/20 11:03:09;;;;;;;;;0.00;0.00;;;;;15.75;57.86;103079.69;4974396;28;9369;-85
2022/01/20 11:05:38;;;;;;;;;0.00;0.00;;;;;15.76;58.39;103085.03;4974433;28;9209;-85
2022/01/20 11:08:04;;;;;;;;;0.33;0.00;;;;;15.74;58.13;103096.38;4973643;28;8835;-84
2022/01/20 11:10:29;;;;;;;;;1.00;0.00;;;;;15.70;58.70;103087.47;4974542;28;9276;-84
2022/01/20 11:12:54;;;;;;;;;0.00;0.00;;;;;15.72;58.96;103112.09;4974215;28;8828;-84
2022/01/20 11:15:21;;;;;;;;;0.00;0.00;;;;;15.69;59.02;103108.47;4972330;28;8860;-84
2022/01/20 11:17:54;;;;;;;;;2.00;1.00;;;;;15.64;59.87;103108.28;4974624;28;8800;-85
2022/01/20 11:20:22;;;;;;;;;0.00;0.00;;;;;15.65;59.09;103094.28;4972967;28;9508;-86
2022/01/20 11:22:59;;;;;;;;;0.33;0.33;;;;;15.66;59.48;103111.88;4974736;28;9220;-85
2022/01/20 11:25:26;;;;;;;;;0.00;0.00;;;;;15.64;59.51;103084.59;4982285;28;9285;-86
2022/01/20 11:28:05;;;;;;;;;0.00;0.00;;;;;15.65;60.15;103090.75;4976907;28;10057;-84
2022/01/20 11:30:33;;;;;;;;;0.00;0.00;;;;;15.63;59.55;103089.81;4973529;28;9340;-84
2022/01/20 11:33:07;;;;;;;;;0.00;0.00;;;;;15.66;59.88;103082.03;4971343;28;9302;-85
2022/01/20 11:35:44;;;;;;;;;0.00;0.00;;;;;15.65;59.94;103078.47;4972243;28;9286;-83
2022/01/20 11:38:15;;;;;;;;;0.00;0.00;;;;;15.67;59.86;103073.28;4971811;28;9455;-82
2022/01/20 11:40:58;;;;;;;;;0.33;0.00;;;;;15.62;59.16;103057.31;4972766;28;9374;-84
2022/01/20 11:43:34;;;;;;;;;0.00;0.00;;;;;15.66;59.02;103068.84;4972026;28;9332;-85
2022/01/20 11:46:10;;;;;;;;;0.00;0.00;;;;;15.65;59.71;103064.41;4971491;28;9390;-84
2022/01/20 11:48:36;;;;;;;;;0.00;0.00;;;;;15.64;58.96;103059.97;4971797;28;9477;-84
2022/01/20 11:51:08;;;;;;;;;0.00;0.00;;;;;15.67;59.94;103060.13;4972958;28;9512;-86
2022/01/20 11:53:41;;;;;;;;;0.00;0.00;;;;;15.69;60.05;103058.41;4972508;28;8810;-84
2022/01/20 11:56:08;;;;;;;;;1.00;0.00;;;;;15.66;60.18;103053.94;4971332;28;9386;-84
2022/01/20 11:58:38;;;;;;;;;0.00;0.00;;;;;15.67;59.50;103039.91;4972370;28;9378;-83
2022/01/20 12:01:07;;;;;;;;;0.00;0.00;;;;;15.70;59.71;103053.22;4972172;28;9311;-84
2022/01/20 12:03:34;;;;;;;;;0.00;0.00;;;;;15.69;59.47;103038.25;4971428;28;9279;-76
2022/01/20 12:06:09;;;;;;;;;1.00;0.00;;;;;15.72;62.91;103030.47;4970903;28;9418;-76
2022/01/20 12:08:35;;;;;;;;;2.50;2.50;;;;;15.97;64.97;103028.69;4972315;28;9268;-73
2022/01/20 12:11:07;;;;;;;;;3.00;1.50;;;;;16.11;65.75;103027.41;4971176;28;9363;-74
2022/01/20 12:13:45;;;;;;;;;5.50;3.00;;;;;16.23;67.58;103031.34;4972354;28;8836;-75
2022/01/20 12:16:16;;;;;;;;;6.00;2.00;;;;;16.32;69.01;103031.66;4970198;28;9460;-74
2022/01/20 12:18:49;;;;;;;;;3.00;2.00;;;;;16.26;66.61;103031.47;4970463;28;9554;-73
2022/01/20 12:21:14;;;;;;;;;3.00;3.00;;;;;16.22;67.59;103023.41;4971575;28;9528;-75
2022/01/20 12:23:44;;;;;;;;;7.75;2.25;;;;;16.26;68.58;103028.81;4971689;28;9422;-77
2022/01/20 12:26:10;;;;;;;;;5.00;3.50;;;;;16.20;68.34;103031.25;4970284;28;9535;-77
2022/01/20 12:28:36;;;;;;;;;2.00;1.00;;;;;16.26;69.48;103034.09;4973456;28;9344;-77
2022/01/20 12:31:03;;;;;;;;;2.00;1.00;;;;;16.30;68.74;103040.38;4962149;28;8834;-78
2022/01/20 12:33:31;;;;;;;;;0.67;0.67;;;;;16.29;68.65;103044.75;4968299;28;8853;-79
2022/01/20 12:36:02;;;;;;;;;3.67;1.33;;;;;16.27;67.92;103054.31;4966918;28;10105;-78
2022/01/20 12:38:29;;;;;;;;;1.00;0.00;;;;;16.25;67.78;103047.22;4966877;28;9395;-77
2022/01/20 12:41:11;;;;;;;;;3.00;2.00;;;;;16.28;68.87;103048.22;4972013;28;9978;-79
2022/01/20 12:43:53;;;;;;;;;0.00;0.00;;;;;16.27;67.45;103054.31;4969066;28;10073;-79
2022/01/20 12:46:21;;;;;;;;;1.67;1.00;;;;;16.24;67.16;103038.41;4965917;28;9540;-77
2022/01/20 12:49:04;;;;;;;;;1.00;1.00;;;;;16.26;67.30;103056.94;4970923;28;9249;-78
2022/01/20 12:51:39;;;;;;;;;1.67;0.00;;;;;16.19;67.71;103063.75;4971257;28;9185;-82